Edwardsport, Indiana
Current Conditions -  °F | °C
As of 10:15 PM on Wednesday 17 Dec 2014 (Local Time) from KDCY Reporting Station
Overcast Overcast  
Wind Chill: 21°   Ceiling: 1700
Heat Index: 28°   Visibility: 10mi
Dew Point: 21°   Wind: 7mph
Humidity: 74%   Direction: 20°NNE
Pressure: 30.3"   Gusts: NA
Location:  38.81°N, 87.25°W
Report Text: KDCY 180415Z AUTO 02006KT 10SM OVC017 M02/M06 A3030 RMK AO2 T10201060
Loading
Personal Weather Stations






























Interactive Weather Map New forecast layout! Learn more

10-Day Weather Forecast

Advertisements
Track Severe Weather on mobile